AMR471 KFMN-KABQ
Flight info
| Callsign | AMR471 |
|---|---|
| Flight time | N/A |
| Altitude | 25000 |
| Route | CHACO1 CHACO TANER/N0260F170 V187 ABQ |
| Aircraft | C550/L-SDFGHRWY/S |
Departure
| Time | 2026-04-18 03:13 |
|---|---|
| Airport | Four Corners Regional Airport (KFMN) |
Arrival
| Time | N/A |
|---|---|
| Airport | Albuquerque International Sunport (KABQ) |
| Time | Latitude | Longitude | Altitude | Speed | Heading |
|---|---|---|---|---|---|
| 2026-04-18 02:43 | 36.73885 | -108.22699 | 5510 ft | 0 kts | 269° |
| 2026-04-18 03:06 | 36.73894 | -108.22711 | 5510 ft | 5 kts | 5° |
| 2026-04-18 03:06 | 36.73934 | -108.22700 | 5510 ft | 5 kts | 10° |
| 2026-04-18 03:06 | 36.73961 | -108.22696 | 5510 ft | 4 kts | 359° |
| 2026-04-18 03:06 | 36.73990 | -108.22682 | 5510 ft | 4 kts | 3° |
| 2026-04-18 03:07 | 36.74024 | -108.22687 | 5510 ft | 6 kts | 337° |
| 2026-04-18 03:07 | 36.74066 | -108.22698 | 5510 ft | 6 kts | 5° |
| 2026-04-18 03:07 | 36.74085 | -108.22661 | 5510 ft | 7 kts | 89° |
| 2026-04-18 03:07 | 36.74084 | -108.22587 | 5510 ft | 10 kts | 89° |
| 2026-04-18 03:08 | 36.74088 | -108.22480 | 5510 ft | 15 kts | 86° |
| 2026-04-18 03:08 | 36.74093 | -108.22354 | 5510 ft | 13 kts | 89° |
| 2026-04-18 03:08 | 36.74095 | -108.22253 | 5510 ft | 10 kts | 88° |
| 2026-04-18 03:08 | 36.74095 | -108.22163 | 5510 ft | 12 kts | 89° |
| 2026-04-18 03:09 | 36.74096 | -108.22062 | 5510 ft | 11 kts | 89° |
| 2026-04-18 03:09 | 36.74098 | -108.21962 | 5510 ft | 13 kts | 89° |
| 2026-04-18 03:09 | 36.74099 | -108.21855 | 5510 ft | 11 kts | 89° |
| 2026-04-18 03:09 | 36.74105 | -108.21773 | 5510 ft | 8 kts | 78° |
| 2026-04-18 03:10 | 36.74122 | -108.21723 | 5510 ft | 6 kts | 31° |
| 2026-04-18 03:10 | 36.74136 | -108.21719 | 5510 ft | 0 kts | 2° |
| 2026-04-18 03:10 | 36.74137 | -108.21719 | 5510 ft | 1 kts | 2° |
| 2026-04-18 03:11 | 36.74163 | -108.21738 | 5510 ft | 10 kts | 272° |
| 2026-04-18 03:11 | 36.74162 | -108.21778 | 5510 ft | 0 kts | 268° |
| 2026-04-18 03:11 | 36.74162 | -108.21779 | 5510 ft | 1 kts | 268° |
| 2026-04-18 03:12 | 36.74159 | -108.21929 | 5510 ft | 38 kts | 269° |
| 2026-04-18 03:12 | 36.74151 | -108.22444 | 5510 ft | 82 kts | 269° |
| 2026-04-18 03:12 | 36.74138 | -108.23318 | 5601 ft | 105 kts | 270° |
| 2026-04-18 03:12 | 36.74152 | -108.24231 | 5510 ft | 111 kts | 271° |
| 2026-04-18 03:13 | 36.74206 | -108.26029 | 6680 ft | 184 kts | 270° |
| 2026-04-18 03:13 | 36.74214 | -108.27610 | 6831 ft | 185 kts | 269° |
| 2026-04-18 03:13 | 36.74171 | -108.29239 | 6838 ft | 190 kts | 267° |
| 2026-04-18 03:13 | 36.74106 | -108.30900 | 6848 ft | 193 kts | 266° |
| 2026-04-18 03:14 | 36.74032 | -108.32583 | 6851 ft | 195 kts | 263° |
| 2026-04-18 03:14 | 36.73455 | -108.34076 | 6838 ft | 196 kts | 224° |
| 2026-04-18 03:14 | 36.72225 | -108.34640 | 7079 ft | 187 kts | 184° |
| 2026-04-18 03:14 | 36.70932 | -108.34488 | 7197 ft | 190 kts | 174° |
| 2026-04-18 03:15 | 36.69612 | -108.34178 | 7208 ft | 195 kts | 172° |
| 2026-04-18 03:15 | 36.68272 | -108.33819 | 7207 ft | 199 kts | 168° |
| 2026-04-18 03:15 | 36.66975 | -108.33172 | 7215 ft | 202 kts | 158° |
| 2026-04-18 03:15 | 36.65712 | -108.32377 | 7220 ft | 204 kts | 155° |
| 2026-04-18 03:16 | 36.64455 | -108.31550 | 7235 ft | 204 kts | 155° |
| 2026-04-18 03:16 | 36.63199 | -108.30718 | 7247 ft | 204 kts | 155° |
| 2026-04-18 03:16 | 36.61982 | -108.29906 | 7493 ft | 194 kts | 155° |
| 2026-04-18 03:16 | 36.60782 | -108.29099 | 7502 ft | 198 kts | 155° |
| 2026-04-18 03:17 | 36.59564 | -108.28280 | 7503 ft | 200 kts | 155° |
| 2026-04-18 03:17 | 36.58354 | -108.27461 | 7718 ft | 191 kts | 155° |
| 2026-04-18 03:17 | 36.57160 | -108.26646 | 7919 ft | 210 kts | 155° |
| 2026-04-18 03:17 | 36.55826 | -108.25739 | 8309 ft | 220 kts | 155° |
| 2026-04-18 03:18 | 36.54525 | -108.24837 | 9163 ft | 205 kts | 155° |
| 2026-04-18 03:18 | 36.53341 | -108.23982 | 10034 ft | 191 kts | 155° |
| 2026-04-18 03:18 | 36.52139 | -108.23103 | 10217 ft | 214 kts | 155° |
| 2026-04-18 03:18 | 36.50772 | -108.22122 | 10252 ft | 239 kts | 155° |
| 2026-04-18 03:19 | 36.49251 | -108.21045 | 10274 ft | 262 kts | 155° |
| 2026-04-18 03:19 | 36.47600 | -108.19889 | 10290 ft | 281 kts | 155° |
| 2026-04-18 03:19 | 36.45838 | -108.18675 | 10347 ft | 295 kts | 155° |
| 2026-04-18 03:19 | 36.44056 | -108.17449 | 10858 ft | 291 kts | 155° |
| 2026-04-18 03:20 | 36.42317 | -108.16246 | 11353 ft | 288 kts | 155° |
| 2026-04-18 03:20 | 36.40579 | -108.15035 | 11840 ft | 286 kts | 155° |
| 2026-04-18 03:20 | 36.38842 | -108.13819 | 12331 ft | 284 kts | 155° |
| 2026-04-18 03:20 | 36.37139 | -108.12622 | 12805 ft | 278 kts | 155° |
| 2026-04-18 03:21 | 36.35472 | -108.11437 | 13270 ft | 273 kts | 155° |
| 2026-04-18 03:21 | 36.33835 | -108.10263 | 13710 ft | 269 kts | 155° |
| 2026-04-18 03:21 | 36.32221 | -108.09107 | 14088 ft | 267 kts | 155° |
| 2026-04-18 03:21 | 36.30620 | -108.07953 | 14459 ft | 266 kts | 155° |
| 2026-04-18 03:22 | 36.29565 | -108.07189 | 14707 ft | 265 kts | 155° |
| 2026-04-18 03:22 | 36.27801 | -108.05086 | 15207 ft | 274 kts | 126° |
| 2026-04-18 03:22 | 36.26919 | -108.02996 | 15612 ft | 272 kts | 122° |
| 2026-04-18 03:22 | 36.26065 | -108.00917 | 16002 ft | 269 kts | 122° |
| 2026-04-18 03:23 | 36.25220 | -107.98852 | 16376 ft | 268 kts | 122° |
| 2026-04-18 03:23 | 36.24380 | -107.96802 | 16744 ft | 266 kts | 122° |
| 2026-04-18 03:23 | 36.23547 | -107.94773 | 17114 ft | 263 kts | 122° |
| 2026-04-18 03:23 | 36.22988 | -107.93410 | 17364 ft | 262 kts | 122° |
| 2026-04-18 03:24 | 36.22170 | -107.91405 | 17736 ft | 259 kts | 122° |
| 2026-04-18 03:24 | 36.21373 | -107.89447 | 18102 ft | 257 kts | 122° |
| 2026-04-18 03:24 | 36.20577 | -107.87481 | 18473 ft | 253 kts | 122° |
| 2026-04-18 03:24 | 36.19797 | -107.85537 | 18828 ft | 251 kts | 122° |
| 2026-04-18 03:25 | 36.19027 | -107.83600 | 19176 ft | 248 kts | 122° |
| 2026-04-18 03:25 | 36.18275 | -107.81687 | 19521 ft | 246 kts | 122° |
| 2026-04-18 03:25 | 36.17547 | -107.79812 | 19862 ft | 243 kts | 122° |
| 2026-04-18 03:25 | 36.16828 | -107.77938 | 20206 ft | 240 kts | 122° |
| 2026-04-18 03:26 | 36.16126 | -107.76084 | 20549 ft | 236 kts | 122° |
| 2026-04-18 03:26 | 36.15446 | -107.74251 | 20879 ft | 233 kts | 121° |
| 2026-04-18 03:26 | 36.14617 | -107.72598 | 21203 ft | 219 kts | 141° |
| 2026-04-18 03:26 | 36.13544 | -107.71312 | 21516 ft | 211 kts | 148° |
| 2026-04-18 03:27 | 36.12433 | -107.70146 | 21815 ft | 207 kts | 150° |
| 2026-04-18 03:27 | 36.11332 | -107.69017 | 22108 ft | 204 kts | 151° |
| 2026-04-18 03:27 | 36.10291 | -107.67820 | 22401 ft | 205 kts | 143° |
| 2026-04-18 03:27 | 36.09364 | -107.66483 | 22694 ft | 203 kts | 140° |
| 2026-04-18 03:28 | 36.08491 | -107.65128 | 22982 ft | 199 kts | 139° |
| 2026-04-18 03:28 | 36.07651 | -107.63785 | 23253 ft | 195 kts | 139° |
| 2026-04-18 03:28 | 36.06838 | -107.62461 | 23517 ft | 191 kts | 139° |
| 2026-04-18 03:28 | 36.06054 | -107.61171 | 23777 ft | 184 kts | 141° |
| 2026-04-18 03:29 | 36.05256 | -107.59982 | 24025 ft | 175 kts | 145° |
| 2026-04-18 03:29 | 36.04469 | -107.58896 | 24255 ft | 168 kts | 147° |
| 2026-04-18 03:29 | 36.03708 | -107.57842 | 24474 ft | 161 kts | 147° |
| 2026-04-18 03:29 | 36.02965 | -107.56801 | 24516 ft | 167 kts | 147° |
| 2026-04-18 03:30 | 36.02136 | -107.55692 | 24421 ft | 181 kts | 147° |
| 2026-04-18 03:30 | 36.01285 | -107.54565 | 24625 ft | 177 kts | 147° |
| 2026-04-18 03:30 | 36.00466 | -107.53462 | 24850 ft | 170 kts | 149° |
| 2026-04-18 03:30 | 35.99641 | -107.52495 | 25070 ft | 158 kts | 155° |
| 2026-04-18 03:31 | 35.98834 | -107.51618 | 25255 ft | 151 kts | 155° |
| 2026-04-18 03:31 | 35.98065 | -107.50777 | 25408 ft | 144 kts | 156° |
| 2026-04-18 03:31 | 35.97227 | -107.49899 | 24243 ft | 188 kts | 155° |